createdAt,value
2023-01-27T00:00:19.576Z,97359.00
2023-01-27T00:05:20.376Z,97351.00
2023-01-27T00:10:21.195Z,97353.00
2023-01-27T00:15:21.986Z,97358.00
2023-01-27T00:20:41.490Z,97355.00
2023-01-27T00:25:42.225Z,97358.00
2023-01-27T00:30:42.992Z,97351.00
2023-01-27T00:35:43.896Z,97347.00
2023-01-27T00:41:14.465Z,97348.00
2023-01-27T00:46:16.880Z,97347.00
2023-01-27T00:51:18.414Z,97336.00
2023-01-27T00:56:19.189Z,97332.00
2023-01-27T01:01:19.997Z,97333.00
2023-01-27T01:06:21.291Z,97331.00
2023-01-27T01:11:23.171Z,97336.00
2023-01-27T01:16:25.764Z,97345.00
2023-01-27T01:21:26.603Z,97355.00
2023-01-27T01:26:27.399Z,97350.00
2023-01-27T01:31:28.360Z,97355.00
2023-01-27T01:36:29.611Z,97365.00
2023-01-27T01:41:30.402Z,97356.00
2023-01-27T01:46:31.359Z,97363.00
2023-01-27T01:51:38.906Z,97364.00
2023-01-27T01:57:25.407Z,97373.00
2023-01-27T02:02:26.847Z,97363.00
2023-01-27T02:08:58.541Z,97360.00
2023-01-27T02:14:01.392Z,97358.00
2023-01-27T02:19:02.669Z,97359.00
2023-01-27T02:24:11.798Z,97350.00
2023-01-27T02:29:14.806Z,97348.00
2023-01-27T02:34:20.154Z,97343.00
2023-01-27T02:39:27.103Z,97351.00
2023-01-27T02:44:28.167Z,97348.00
2023-01-27T02:49:29.344Z,97357.00
2023-01-27T02:54:30.296Z,97357.00
2023-01-27T02:59:31.284Z,97350.00
2023-01-27T03:04:32.334Z,97354.00
2023-01-27T03:09:33.106Z,97354.00
2023-01-27T03:14:53.203Z,97347.00
2023-01-27T03:19:54.114Z,97353.00
2023-01-27T03:24:54.972Z,97358.00
2023-01-27T03:29:55.794Z,97360.00
2023-01-27T03:34:57.142Z,97355.00
2023-01-27T03:40:22.264Z,97363.00
2023-01-27T03:45:41.552Z,97368.00
2023-01-27T03:50:42.508Z,97373.00
2023-01-27T03:55:43.232Z,97364.00
2023-01-27T04:00:45.421Z,97370.00
2023-01-27T04:06:04.616Z,97369.00
2023-01-27T04:11:23.965Z,97376.00
2023-01-27T04:16:28.067Z,97379.00
2023-01-27T04:21:29.169Z,97383.00
2023-01-27T04:26:33.623Z,97387.00
2023-01-27T04:31:34.607Z,97385.00
2023-01-27T04:36:35.884Z,97384.00
2023-01-27T04:41:37.233Z,97379.00
2023-01-27T04:46:40.214Z,97383.00
2023-01-27T04:51:41.064Z,97383.00
2023-01-27T04:56:57.819Z,97385.00
2023-01-27T05:01:58.702Z,97381.00
2023-01-27T05:06:59.545Z,97387.00
2023-01-27T05:12:00.277Z,97390.00
2023-01-27T05:17:01.457Z,97398.00
2023-01-27T05:22:02.237Z,97406.00
2023-01-27T05:27:04.275Z,97413.00
2023-01-27T05:32:05.270Z,97417.00
2023-01-27T05:37:06.333Z,97426.00
2023-01-27T05:42:07.081Z,97426.00
2023-01-27T05:47:07.925Z,97435.00
2023-01-27T05:52:08.647Z,97438.00
2023-01-27T05:57:09.401Z,97446.00
2023-01-27T06:02:10.746Z,97447.00
2023-01-27T06:07:11.599Z,97440.00
2023-01-27T06:12:12.307Z,97448.00
2023-01-27T06:17:13.125Z,97455.00
2023-01-27T06:22:13.918Z,97457.00
2023-01-27T06:27:14.884Z,97463.00
2023-01-27T06:32:15.680Z,97458.00
2023-01-27T06:37:16.449Z,97457.00
2023-01-27T06:42:17.195Z,97465.00
2023-01-27T06:47:17.969Z,97472.00
2023-01-27T06:52:18.845Z,97472.00
2023-01-27T06:57:19.846Z,97475.00
2023-01-27T07:02:20.624Z,97473.00
2023-01-27T07:07:21.628Z,97482.00
2023-01-27T07:12:22.349Z,97483.00
2023-01-27T07:17:23.105Z,97483.00
2023-01-27T07:22:23.951Z,97488.00
2023-01-27T07:27:25.608Z,97494.00
2023-01-27T07:32:28.098Z,97493.00
2023-01-27T07:37:29.343Z,97490.00
2023-01-27T07:42:30.094Z,97492.00
2023-01-27T07:47:30.871Z,97496.00
2023-01-27T07:52:31.758Z,97508.00
2023-01-27T07:57:33.276Z,97509.00
2023-01-27T08:02:33.983Z,97516.00
2023-01-27T08:07:34.779Z,97509.00
2023-01-27T08:12:35.624Z,97520.00
2023-01-27T08:17:36.683Z,97514.00
2023-01-27T08:22:37.551Z,97523.00
2023-01-27T08:27:38.342Z,97517.00
2023-01-27T08:32:39.074Z,97522.00
2023-01-27T08:37:39.858Z,97526.00
2023-01-27T08:42:40.604Z,97533.00
2023-01-27T08:47:41.436Z,97538.00
2023-01-27T08:52:42.285Z,97547.00
2023-01-27T08:57:43.583Z,97551.00
2023-01-27T09:02:46.630Z,97569.00
2023-01-27T09:07:48.278Z,97568.00
2023-01-27T09:12:49.085Z,97576.00
2023-01-27T09:17:49.874Z,97574.00
2023-01-27T09:22:50.684Z,97579.00
2023-01-27T09:27:55.841Z,97586.00
2023-01-27T09:33:00.856Z,97591.00
2023-01-27T09:38:03.834Z,97589.00
2023-01-27T09:43:42.412Z,97595.00
2023-01-27T09:49:08.648Z,97593.00
2023-01-27T09:54:30.043Z,97597.00
2023-01-27T09:59:54.948Z,97593.00
2023-01-27T10:05:33.002Z,97586.00
2023-01-27T10:11:15.546Z,97579.00
2023-01-27T10:16:32.801Z,97587.00
2023-01-27T10:21:50.873Z,97584.00
2023-01-27T10:27:00.168Z,97600.00
2023-01-27T10:32:08.358Z,97594.00
2023-01-27T10:40:13.443Z,97588.00
2023-01-27T10:45:29.998Z,97584.00
2023-01-27T10:50:41.251Z,97584.00
2023-01-27T10:57:28.483Z,97572.00
2023-01-27T11:02:45.051Z,97582.00
2023-01-27T11:07:55.866Z,97592.00
2023-01-27T11:12:58.750Z,97588.00
2023-01-27T11:18:18.383Z,97602.00
2023-01-27T11:23:23.557Z,97594.00
2023-01-27T11:35:32.164Z,97595.00
2023-01-27T11:40:36.767Z,97597.00
2023-01-27T11:45:38.373Z,97587.00
2023-01-27T11:50:41.008Z,97585.00
2023-01-27T11:55:46.860Z,97581.00
2023-01-27T12:01:01.240Z,97570.00
2023-01-27T12:06:11.245Z,97563.00
2023-01-27T12:11:34.439Z,97569.00
2023-01-27T12:16:46.860Z,97554.00
2023-01-27T12:21:52.701Z,97561.00
2023-01-27T12:26:55.497Z,97561.00
2023-01-27T12:31:58.563Z,97558.00
2023-01-27T12:36:59.607Z,97566.00
2023-01-27T12:42:00.722Z,97549.00
2023-01-27T12:47:14.357Z,97545.00
2023-01-27T12:52:19.211Z,97546.00
2023-01-27T12:57:22.210Z,97545.00
2023-01-27T13:02:25.773Z,97540.00
2023-01-27T13:07:37.550Z,97541.00
2023-01-27T13:12:53.060Z,97543.00
2023-01-27T13:17:55.981Z,97545.00
2023-01-27T13:23:23.842Z,97551.00
2023-01-27T13:28:51.358Z,97551.00
2023-01-27T13:34:10.065Z,97551.00
2023-01-27T13:39:28.029Z,97553.00
2023-01-27T13:44:38.493Z,97555.00
2023-01-27T13:50:30.238Z,97560.00
2023-01-27T13:57:13.820Z,97557.00
2023-01-27T14:03:02.268Z,97559.00
2023-01-27T14:08:27.176Z,97567.00
2023-01-27T14:13:56.401Z,97568.00
2023-01-27T14:19:23.339Z,97570.00
2023-01-27T14:24:55.655Z,97580.00
2023-01-27T14:30:47.290Z,97586.00
2023-01-27T14:36:09.226Z,97585.00
2023-01-27T14:43:56.746Z,97589.00
2023-01-27T14:49:34.296Z,97595.00
2023-01-27T14:58:26.058Z,97604.00
2023-01-27T15:04:30.510Z,97608.00
2023-01-27T15:10:58.908Z,97612.00
2023-01-27T15:17:49.048Z,97613.00
2023-01-27T15:25:39.850Z,97624.00
2023-01-27T15:32:05.783Z,97632.00
2023-01-27T15:37:21.096Z,97637.00
2023-01-27T15:42:25.591Z,97639.00
2023-01-27T15:47:36.269Z,97644.00
2023-01-27T15:52:43.780Z,97639.00
2023-01-27T15:57:44.740Z,97640.00
2023-01-27T16:02:51.419Z,97646.00
2023-01-27T16:07:57.676Z,97642.00
2023-01-27T16:13:25.137Z,97662.00
2023-01-27T16:18:27.042Z,97670.00
2023-01-27T16:23:55.830Z,97667.00
2023-01-27T16:29:09.643Z,97678.00
2023-01-27T16:34:25.785Z,97677.00
2023-01-27T16:39:40.854Z,97680.00
2023-01-27T16:44:50.929Z,97688.00
2023-01-27T16:49:54.986Z,97679.00
2023-01-27T16:54:57.784Z,97676.00
2023-01-27T17:00:03.732Z,97679.00
2023-01-27T17:05:14.957Z,97679.00
2023-01-27T17:10:29.040Z,97680.00
2023-01-27T17:15:37.920Z,97688.00
2023-01-27T17:20:41.909Z,97691.00
2023-01-27T17:25:42.708Z,97693.00
2023-01-27T17:30:46.004Z,97686.00
2023-01-27T17:36:07.361Z,97701.00
2023-01-27T17:41:24.362Z,97707.00
2023-01-27T17:46:28.259Z,97716.00
2023-01-27T17:51:53.633Z,97719.00
2023-01-27T17:58:50.398Z,97723.00
2023-01-27T18:03:56.176Z,97720.00
2023-01-27T18:09:00.855Z,97731.00
2023-01-27T18:14:12.793Z,97732.00
2023-01-27T18:19:25.906Z,97735.00
2023-01-27T18:24:27.593Z,97741.00
2023-01-27T18:29:36.881Z,97743.00
2023-01-27T18:34:49.081Z,97753.00
2023-01-27T18:39:50.100Z,97743.00
2023-01-27T18:44:52.182Z,97754.00
2023-01-27T18:50:14.200Z,97751.00
2023-01-27T18:55:29.408Z,97757.00
2023-01-27T19:00:41.404Z,97753.00
2023-01-27T19:05:42.777Z,97755.00
2023-01-27T19:10:45.735Z,97748.00
2023-01-27T19:15:53.517Z,97754.00
2023-01-27T19:20:54.561Z,97749.00
2023-01-27T19:25:57.577Z,97760.00
2023-01-27T19:30:59.420Z,97763.00
2023-01-27T19:36:09.089Z,97768.00
2023-01-27T19:41:10.939Z,97763.00
2023-01-27T19:46:13.780Z,97771.00
2023-01-27T19:51:16.622Z,97780.00
2023-01-27T19:56:20.744Z,97768.00
2023-01-27T20:01:24.379Z,97784.00
2023-01-27T20:06:27.107Z,97787.00
2023-01-27T20:11:37.245Z,97798.00
2023-01-27T20:16:38.180Z,97792.00
2023-01-27T20:21:39.405Z,97790.00
2023-01-27T20:26:40.159Z,97797.00
2023-01-27T20:31:41.212Z,97795.00
2023-01-27T20:36:41.991Z,97795.00
2023-01-27T20:41:42.896Z,97797.00
2023-01-27T20:46:43.626Z,97798.00
2023-01-27T20:51:44.461Z,97807.00
2023-01-27T20:56:45.180Z,97806.00
2023-01-27T21:01:46.237Z,97807.00
2023-01-27T21:06:46.970Z,97815.00
2023-01-27T21:11:47.825Z,97809.00
2023-01-27T21:16:48.610Z,97816.00
2023-01-27T21:21:49.492Z,97821.00
2023-01-27T21:26:53.534Z,97814.00
2023-01-27T21:31:54.421Z,97821.00
2023-01-27T21:36:55.850Z,97813.00
2023-01-27T21:42:41.624Z,97814.00
2023-01-27T21:47:42.397Z,97808.00
2023-01-27T21:52:46.035Z,97808.00
2023-01-27T21:57:50.033Z,97815.00
2023-01-27T22:02:59.922Z,97811.00
2023-01-27T22:08:05.527Z,97822.00
2023-01-27T22:13:07.515Z,97813.00
2023-01-27T22:18:08.390Z,97812.00
2023-01-27T22:23:09.487Z,97813.00
2023-01-27T22:28:10.218Z,97819.00
2023-01-27T22:33:11.612Z,97822.00
2023-01-27T22:38:12.488Z,97817.00
2023-01-27T22:43:15.405Z,97811.00
2023-01-27T22:48:16.173Z,97812.00
2023-01-27T22:53:17.003Z,97820.00
2023-01-27T22:58:17.739Z,97813.00
2023-01-27T23:03:19.395Z,97806.00
2023-01-27T23:08:20.170Z,97811.00
2023-01-27T23:13:20.992Z,97809.00
2023-01-27T23:18:22.308Z,97801.00
2023-01-27T23:23:23.693Z,97804.00
2023-01-27T23:28:25.114Z,97805.00
2023-01-27T23:33:29.112Z,97802.00
2023-01-27T23:38:32.841Z,97811.00
2023-01-27T23:43:34.759Z,97819.00
2023-01-27T23:48:35.528Z,97812.00
2023-01-27T23:53:36.271Z,97810.00
2023-01-27T23:58:37.051Z,97811.00
